Maldives Meteorological Service

SYNOP

Station Code SYNOP
43555
AAXX 25184 43555 11459 50506 10281 20239 30120 40122 60001 70522 83202 333 59018 83818 83078=
43533
AAXX 25184 43533 12460 59902 10272 20236 30121 40123 60001 81202 333 59012 81818 84077=
43577
AAXX 25184 43577 11458 79901 10262 20242 30124 40126 60001 70522 82248 333 59014 82818 87276=
43588
AAXX 25184 43588 11458 79902 10274 20245 30121 40122 60001 70522 81208 333 59016 81818 87277=
43599
AAXX 25184 43599 12458 79902 10278 20243 30123 40125 60001 82202 333 59015 82818 87076=
Last Updated : 2017-02-25 23:00:00